sensor_id;sensor_type;location;lat;lon;timestamp;P1;P2;P0
54021;PMS7003;39936;51.058;17.220;2022-12-29T00:00:56;7;7;5
54021;PMS7003;39936;51.058;17.220;2022-12-29T00:05:04;8;5;4
54021;PMS7003;39936;51.058;17.220;2022-12-29T00:08:33;7;6;5
54021;PMS7003;39936;51.058;17.220;2022-12-29T00:12:11;5;4;3
54021;PMS7003;39936;51.058;17.220;2022-12-29T00:16:07;9;6;5
54021;PMS7003;39936;51.058;17.220;2022-12-29T00:19:40;6;5;4
54021;PMS7003;39936;51.058;17.220;2022-12-29T00:28:29;7;6;5
54021;PMS7003;39936;51.058;17.220;2022-12-29T00:32:01;7;6;4
54021;PMS7003;39936;51.058;17.220;2022-12-29T00:35:30;8;6;3
54021;PMS7003;39936;51.058;17.220;2022-12-29T00:39:34;7;6;3
54021;PMS7003;39936;51.058;17.220;2022-12-29T00:47:47;9;6;4
54021;PMS7003;39936;51.058;17.220;2022-12-29T00:51:27;7;5;4
54021;PMS7003;39936;51.058;17.220;2022-12-29T00:55:09;10;4;2
54021;PMS7003;39936;51.058;17.220;2022-12-29T01:03:34;6;5;3
54021;PMS7003;39936;51.058;17.220;2022-12-29T01:07:18;7;5;3
54021;PMS7003;39936;51.058;17.220;2022-12-29T01:15:33;10;9;5
54021;PMS7003;39936;51.058;17.220;2022-12-29T01:19:15;7;5;5
54021;PMS7003;39936;51.058;17.220;2022-12-29T01:23:04;7;7;5
54021;PMS7003;39936;51.058;17.220;2022-12-29T01:26:33;10;7;5
54021;PMS7003;39936;51.058;17.220;2022-12-29T01:34:07;7;6;5
54021;PMS7003;39936;51.058;17.220;2022-12-29T01:38:02;5;3;2
54021;PMS7003;39936;51.058;17.220;2022-12-29T01:41:51;9;7;5
54021;PMS7003;39936;51.058;17.220;2022-12-29T01:49:27;10;6;4
54021;PMS7003;39936;51.058;17.220;2022-12-29T01:53:10;9;6;5
54021;PMS7003;39936;51.058;17.220;2022-12-29T01:58:39;6;4;4
54021;PMS7003;39936;51.058;17.220;2022-12-29T02:02:48;5;4;3
54021;PMS7003;39936;51.058;17.220;2022-12-29T02:10:31;6;5;3
54021;PMS7003;39936;51.058;17.220;2022-12-29T02:14:20;8;5;3
54021;PMS7003;39936;51.058;17.220;2022-12-29T02:45:47;5;5;3
54021;PMS7003;39936;51.058;17.220;2022-12-29T02:57:34;6;6;3
54021;PMS7003;39936;51.058;17.220;2022-12-29T03:18:15;9;9;7
54021;PMS7003;39936;51.058;17.220;2022-12-29T03:22:22;13;9;6
54021;PMS7003;39936;51.058;17.220;2022-12-29T03:26:22;7;5;3
54021;PMS7003;39936;51.058;17.220;2022-12-29T03:29:55;11;7;5
54021;PMS7003;39936;51.058;17.220;2022-12-29T03:33:58;7;7;4
54021;PMS7003;39936;51.058;17.220;2022-12-29T03:42:05;9;8;5
54021;PMS7003;39936;51.058;17.220;2022-12-29T03:45:42;7;7;5
54021;PMS7003;39936;51.058;17.220;2022-12-29T03:48:50;6;6;4
54021;PMS7003;39936;51.058;17.220;2022-12-29T03:52:31;6;6;3
54021;PMS7003;39936;51.058;17.220;2022-12-29T03:56:11;8;7;6
54021;PMS7003;39936;51.058;17.220;2022-12-29T03:59:56;12;10;7
54021;PMS7003;39936;51.058;17.220;2022-12-29T04:03:27;11;7;6
54021;PMS7003;39936;51.058;17.220;2022-12-29T04:07:08;5;5;4
54021;PMS7003;39936;51.058;17.220;2022-12-29T04:10:35;7;6;4
54021;PMS7003;39936;51.058;17.220;2022-12-29T04:13:44;8;7;4
54021;PMS7003;39936;51.058;17.220;2022-12-29T04:21:12;5;5;4
54021;PMS7003;39936;51.058;17.220;2022-12-29T04:28:36;12;8;5
54021;PMS7003;39936;51.058;17.220;2022-12-29T04:32:04;10;6;4
54021;PMS7003;39936;51.058;17.220;2022-12-29T04:35:43;11;8;5
54021;PMS7003;39936;51.058;17.220;2022-12-29T04:39:39;7;6;4
54021;PMS7003;39936;51.058;17.220;2022-12-29T04:42:57;8;5;4
54021;PMS7003;39936;51.058;17.220;2022-12-29T04:48:55;9;9;7
54021;PMS7003;39936;51.058;17.220;2022-12-29T04:52:44;11;9;6
54021;PMS7003;39936;51.058;17.220;2022-12-29T04:57:19;9;7;6
54021;PMS7003;39936;51.058;17.220;2022-12-29T05:00:39;7;7;6
54021;PMS7003;39936;51.058;17.220;2022-12-29T05:04:06;12;8;6
54021;PMS7003;39936;51.058;17.220;2022-12-29T05:07:14;8;7;4
54021;PMS7003;39936;51.058;17.220;2022-12-29T05:14:59;9;9;6
54021;PMS7003;39936;51.058;17.220;2022-12-29T05:18:26;8;8;6
54021;PMS7003;39936;51.058;17.220;2022-12-29T05:22:10;10;9;6
54021;PMS7003;39936;51.058;17.220;2022-12-29T05:25:46;14;6;4
54021;PMS7003;39936;51.058;17.220;2022-12-29T05:29:16;12;10;6
54021;PMS7003;39936;51.058;17.220;2022-12-29T05:37:22;13;7;4
54021;PMS7003;39936;51.058;17.220;2022-12-29T05:40:54;13;9;6
54021;PMS7003;39936;51.058;17.220;2022-12-29T05:44:42;13;11;9
54021;PMS7003;39936;51.058;17.220;2022-12-29T05:48:09;11;8;6
54021;PMS7003;39936;51.058;17.220;2022-12-29T05:51:40;7;5;3
54021;PMS7003;39936;51.058;17.220;2022-12-29T05:55:36;7;6;5
54021;PMS7003;39936;51.058;17.220;2022-12-29T06:03:20;7;7;5
54021;PMS7003;39936;51.058;17.220;2022-12-29T06:06:45;11;10;7
54021;PMS7003;39936;51.058;17.220;2022-12-29T06:10:38;12;10;6
54021;PMS7003;39936;51.058;17.220;2022-12-29T06:14:08;8;7;5
54021;PMS7003;39936;51.058;17.220;2022-12-29T06:17:42;31;28;23
54021;PMS7003;39936;51.058;17.220;2022-12-29T06:21:33;13;10;7
54021;PMS7003;39936;51.058;17.220;2022-12-29T06:24:47;11;10;6
54021;PMS7003;39936;51.058;17.220;2022-12-29T06:27:55;14;12;8
54021;PMS7003;39936;51.058;17.220;2022-12-29T06:31:03;13;11;8
54021;PMS7003;39936;51.058;17.220;2022-12-29T06:38:21;14;10;6
54021;PMS7003;39936;51.058;17.220;2022-12-29T06:41:56;10;8;6
54021;PMS7003;39936;51.058;17.220;2022-12-29T06:50:23;16;11;7
54021;PMS7003;39936;51.058;17.220;2022-12-29T06:57:46;8;7;6
54021;PMS7003;39936;51.058;17.220;2022-12-29T07:01:27;10;8;7
54021;PMS7003;39936;51.058;17.220;2022-12-29T07:05:26;13;10;7
54021;PMS7003;39936;51.058;17.220;2022-12-29T07:09:39;12;10;6
54021;PMS7003;39936;51.058;17.220;2022-12-29T07:13:09;11;10;7
54021;PMS7003;39936;51.058;17.220;2022-12-29T07:16:32;10;9;7
54021;PMS7003;39936;51.058;17.220;2022-12-29T07:20:24;11;11;8
54021;PMS7003;39936;51.058;17.220;2022-12-29T07:28:11;12;11;8
54021;PMS7003;39936;51.058;17.220;2022-12-29T07:36:38;15;14;11
54021;PMS7003;39936;51.058;17.220;2022-12-29T07:43:41;17;14;9
54021;PMS7003;39936;51.058;17.220;2022-12-29T07:53:32;13;10;8
54021;PMS7003;39936;51.058;17.220;2022-12-29T07:59:40;13;11;7
54021;PMS7003;39936;51.058;17.220;2022-12-29T08:05:15;14;12;8
54021;PMS7003;39936;51.058;17.220;2022-12-29T08:08:48;14;12;8
54021;PMS7003;39936;51.058;17.220;2022-12-29T08:17:04;10;10;7
54021;PMS7003;39936;51.058;17.220;2022-12-29T08:21:24;19;14;12
54021;PMS7003;39936;51.058;17.220;2022-12-29T08:26:45;13;10;6
54021;PMS7003;39936;51.058;17.220;2022-12-29T08:38:48;10;10;8
54021;PMS7003;39936;51.058;17.220;2022-12-29T08:42:28;15;11;8
54021;PMS7003;39936;51.058;17.220;2022-12-29T08:46:51;13;11;8
54021;PMS7003;39936;51.058;17.220;2022-12-29T08:51:53;18;14;9
54021;PMS7003;39936;51.058;17.220;2022-12-29T08:55:17;14;14;9
54021;PMS7003;39936;51.058;17.220;2022-12-29T09:07:19;12;11;9
54021;PMS7003;39936;51.058;17.220;2022-12-29T09:20:56;10;9;6
54021;PMS7003;39936;51.058;17.220;2022-12-29T09:29:05;17;13;10
54021;PMS7003;39936;51.058;17.220;2022-12-29T09:32:26;19;17;14
54021;PMS7003;39936;51.058;17.220;2022-12-29T09:53:38;14;13;9
54021;PMS7003;39936;51.058;17.220;2022-12-29T09:57:40;12;11;8
54021;PMS7003;39936;51.058;17.220;2022-12-29T10:01:59;12;11;9
54021;PMS7003;39936;51.058;17.220;2022-12-29T10:06:22;19;17;14
54021;PMS7003;39936;51.058;17.220;2022-12-29T10:24:49;17;16;12
54021;PMS7003;39936;51.058;17.220;2022-12-29T10:52:17;14;14;11
54021;PMS7003;39936;51.058;17.220;2022-12-29T11:01:42;11;8;5
54021;PMS7003;39936;51.058;17.220;2022-12-29T11:05:20;11;10;7
54021;PMS7003;39936;51.058;17.220;2022-12-29T11:09:12;17;15;13
54021;PMS7003;39936;51.058;17.220;2022-12-29T11:14:16;7;6;5
54021;PMS7003;39936;51.058;17.220;2022-12-29T11:35:57;16;14;12
54021;PMS7003;39936;51.058;17.220;2022-12-29T11:51:59;15;13;9
54021;PMS7003;39936;51.058;17.220;2022-12-29T12:22:53;17;14;10
54021;PMS7003;39936;51.058;17.220;2022-12-29T12:27:26;15;13;9
54021;PMS7003;39936;51.058;17.220;2022-12-29T13:11:17;19;15;11
54021;PMS7003;39936;51.058;17.220;2022-12-29T13:28:01;18;13;8
54021;PMS7003;39936;51.058;17.220;2022-12-29T13:59:52;21;19;14
54021;PMS7003;39936;51.058;17.220;2022-12-29T14:07:56;18;14;10
54021;PMS7003;39936;51.058;17.220;2022-12-29T14:11:13;17;16;12
54021;PMS7003;39936;51.058;17.220;2022-12-29T14:15:53;18;13;10
54021;PMS7003;39936;51.058;17.220;2022-12-29T14:19:51;24;22;15
54021;PMS7003;39936;51.058;17.220;2022-12-29T14:59:20;19;16;12
54021;PMS7003;39936;51.058;17.220;2022-12-29T15:32:27;24;18;13
54021;PMS7003;39936;51.058;17.220;2022-12-29T15:36:46;21;19;15
54021;PMS7003;39936;51.058;17.220;2022-12-29T15:40:44;24;22;16
54021;PMS7003;39936;51.058;17.220;2022-12-29T15:47:45;20;19;12
54021;PMS7003;39936;51.058;17.220;2022-12-29T15:58:44;20;15;9
54021;PMS7003;39936;51.058;17.220;2022-12-29T16:02:14;22;17;10
54021;PMS7003;39936;51.058;17.220;2022-12-29T16:05:49;18;16;11
54021;PMS7003;39936;51.058;17.220;2022-12-29T16:17:36;19;15;10
54021;PMS7003;39936;51.058;17.220;2022-12-29T16:21:28;24;18;12
54021;PMS7003;39936;51.058;17.220;2022-12-29T16:25:50;25;20;13
54021;PMS7003;39936;51.058;17.220;2022-12-29T16:33:54;27;22;14
54021;PMS7003;39936;51.058;17.220;2022-12-29T16:38:31;27;20;14
54021;PMS7003;39936;51.058;17.220;2022-12-29T16:42:46;24;17;11
54021;PMS7003;39936;51.058;17.220;2022-12-29T16:46:21;18;13;8
54021;PMS7003;39936;51.058;17.220;2022-12-29T16:50:13;23;17;11
54021;PMS7003;39936;51.058;17.220;2022-12-29T16:54:17;23;19;13
54021;PMS7003;39936;51.058;17.220;2022-12-29T16:57:36;33;30;21
54021;PMS7003;39936;51.058;17.220;2022-12-29T17:00:51;24;20;13
54021;PMS7003;39936;51.058;17.220;2022-12-29T17:04:16;22;17;11
54021;PMS7003;39936;51.058;17.220;2022-12-29T17:11:38;19;18;12
54021;PMS7003;39936;51.058;17.220;2022-12-29T17:15:03;23;20;13
54021;PMS7003;39936;51.058;17.220;2022-12-29T17:19:11;30;26;21
54021;PMS7003;39936;51.058;17.220;2022-12-29T17:26:42;37;31;22
54021;PMS7003;39936;51.058;17.220;2022-12-29T17:30:10;24;21;15
54021;PMS7003;39936;51.058;17.220;2022-12-29T17:34:11;27;20;14
54021;PMS7003;39936;51.058;17.220;2022-12-29T17:51:38;19;17;11
54021;PMS7003;39936;51.058;17.220;2022-12-29T17:55:03;20;19;13
54021;PMS7003;39936;51.058;17.220;2022-12-29T18:02:53;29;23;14
54021;PMS7003;39936;51.058;17.220;2022-12-29T18:06:28;31;24;16
54021;PMS7003;39936;51.058;17.220;2022-12-29T18:10:02;33;29;19
54021;PMS7003;39936;51.058;17.220;2022-12-29T18:13:38;32;26;17
54021;PMS7003;39936;51.058;17.220;2022-12-29T18:16:54;26;22;13
54021;PMS7003;39936;51.058;17.220;2022-12-29T18:20:07;34;25;13
54021;PMS7003;39936;51.058;17.220;2022-12-29T18:23:42;26;22;14
54021;PMS7003;39936;51.058;17.220;2022-12-29T18:29:47;29;26;18
54021;PMS7003;39936;51.058;17.220;2022-12-29T18:36:45;30;23;17
54021;PMS7003;39936;51.058;17.220;2022-12-29T18:41:01;22;19;13
54021;PMS7003;39936;51.058;17.220;2022-12-29T18:44:59;27;24;16
54021;PMS7003;39936;51.058;17.220;2022-12-29T18:49:19;23;21;13
54021;PMS7003;39936;51.058;17.220;2022-12-29T18:53:05;22;19;12
54021;PMS7003;39936;51.058;17.220;2022-12-29T19:05:34;30;21;15
54021;PMS7003;39936;51.058;17.220;2022-12-29T19:09:26;22;21;13
54021;PMS7003;39936;51.058;17.220;2022-12-29T19:13:04;24;19;13
54021;PMS7003;39936;51.058;17.220;2022-12-29T19:23:54;28;24;16
54021;PMS7003;39936;51.058;17.220;2022-12-29T19:28:24;29;24;14
54021;PMS7003;39936;51.058;17.220;2022-12-29T19:32:21;29;26;19
54021;PMS7003;39936;51.058;17.220;2022-12-29T19:36:20;28;23;15
54021;PMS7003;39936;51.058;17.220;2022-12-29T19:40:08;39;33;24
54021;PMS7003;39936;51.058;17.220;2022-12-29T19:43:27;27;22;14
54021;PMS7003;39936;51.058;17.220;2022-12-29T19:47:04;26;20;14
54021;PMS7003;39936;51.058;17.220;2022-12-29T19:50:50;20;15;10
54021;PMS7003;39936;51.058;17.220;2022-12-29T19:54:12;30;27;18
54021;PMS7003;39936;51.058;17.220;2022-12-29T19:58:29;26;21;14
54021;PMS7003;39936;51.058;17.220;2022-12-29T20:02:33;33;25;17
54021;PMS7003;39936;51.058;17.220;2022-12-29T20:05:56;26;24;15
54021;PMS7003;39936;51.058;17.220;2022-12-29T20:11:13;33;28;19
54021;PMS7003;39936;51.058;17.220;2022-12-29T20:21:32;23;21;13
54021;PMS7003;39936;51.058;17.220;2022-12-29T20:34:26;23;22;16
54021;PMS7003;39936;51.058;17.220;2022-12-29T20:37:53;31;24;16
54021;PMS7003;39936;51.058;17.220;2022-12-29T20:41:42;27;23;16
54021;PMS7003;39936;51.058;17.220;2022-12-29T20:46:12;27;25;15
54021;PMS7003;39936;51.058;17.220;2022-12-29T20:53:53;32;23;15
54021;PMS7003;39936;51.058;17.220;2022-12-29T20:57:38;28;25;15
54021;PMS7003;39936;51.058;17.220;2022-12-29T21:01:24;29;23;16
54021;PMS7003;39936;51.058;17.220;2022-12-29T21:05:14;26;23;15
54021;PMS7003;39936;51.058;17.220;2022-12-29T21:08:57;27;21;12
54021;PMS7003;39936;51.058;17.220;2022-12-29T21:12:12;27;20;15
54021;PMS7003;39936;51.058;17.220;2022-12-29T21:16:03;28;22;14
54021;PMS7003;39936;51.058;17.220;2022-12-29T21:19:21;25;22;15
54021;PMS7003;39936;51.058;17.220;2022-12-29T21:23:10;29;25;17
54021;PMS7003;39936;51.058;17.220;2022-12-29T21:26:24;29;24;16
54021;PMS7003;39936;51.058;17.220;2022-12-29T21:30:11;32;26;14
54021;PMS7003;39936;51.058;17.220;2022-12-29T21:33:46;26;22;14
54021;PMS7003;39936;51.058;17.220;2022-12-29T21:37:13;26;24;15
54021;PMS7003;39936;51.058;17.220;2022-12-29T21:44:37;31;27;17
54021;PMS7003;39936;51.058;17.220;2022-12-29T21:49:14;32;23;14
54021;PMS7003;39936;51.058;17.220;2022-12-29T22:04:23;30;25;16
54021;PMS7003;39936;51.058;17.220;2022-12-29T22:09:14;27;26;15
54021;PMS7003;39936;51.058;17.220;2022-12-29T22:13:33;31;25;17
54021;PMS7003;39936;51.058;17.220;2022-12-29T22:17:50;31;23;14
54021;PMS7003;39936;51.058;17.220;2022-12-29T22:21:49;25;22;14
54021;PMS7003;39936;51.058;17.220;2022-12-29T22:30:29;25;21;15
54021;PMS7003;39936;51.058;17.220;2022-12-29T22:34:05;22;20;14
54021;PMS7003;39936;51.058;17.220;2022-12-29T22:38:23;28;25;17
54021;PMS7003;39936;51.058;17.220;2022-12-29T22:47:03;25;18;14
54021;PMS7003;39936;51.058;17.220;2022-12-29T22:58:20;24;22;14
54021;PMS7003;39936;51.058;17.220;2022-12-29T23:06:49;27;22;13
54021;PMS7003;39936;51.058;17.220;2022-12-29T23:10:34;25;20;16
54021;PMS7003;39936;51.058;17.220;2022-12-29T23:14:07;27;22;16
54021;PMS7003;39936;51.058;17.220;2022-12-29T23:17:25;25;21;13
54021;PMS7003;39936;51.058;17.220;2022-12-29T23:20:48;21;17;12
54021;PMS7003;39936;51.058;17.220;2022-12-29T23:27:28;24;21;13
54021;PMS7003;39936;51.058;17.220;2022-12-29T23:31:41;26;23;14
54021;PMS7003;39936;51.058;17.220;2022-12-29T23:35:10;22;18;12
54021;PMS7003;39936;51.058;17.220;2022-12-29T23:36:48;26;19;11
54021;PMS7003;39936;51.058;17.220;2022-12-29T23:40:44;29;22;15
54021;PMS7003;39936;51.058;17.220;2022-12-29T23:44:46;28;25;18
54021;PMS7003;39936;51.058;17.220;2022-12-29T23:48:15;27;22;14
54021;PMS7003;39936;51.058;17.220;2022-12-29T23:51:54;30;23;13
54021;PMS7003;39936;51.058;17.220;2022-12-29T23:55:43;28;26;18
54021;PMS7003;39936;51.058;17.220;2022-12-29T23:59:22;26;22;14
